METAR Data
IDs: Format: Raw Decoded Include TAF

Data at: 1842 UTC 25 Mar 2019

KBMQ 251753Z AUTO 04012KT 10SM CLR 24/14 A3019 RMK AO2 SLP210 60000 T02390139 10244 20189 50005
KBMQ 251653Z AUTO 03009KT 10SM CLR 23/14 A3019 RMK AO2 SLP211 T02280144
KBMQ 251553Z AUTO 03008KT 10SM CLR 21/14 A3019 RMK AO2 SLP211 T02110139
KBMQ 251453Z AUTO 02008KT 10SM FEW027 19/15 A3018 RMK AO2 SLP206 60000 T01940150 53011
KBMQ 251449Z AUTO 01009KT 10SM FEW027 19/15 A3018 RMK AO2
KBMQ 251438Z AUTO 01009KT 10SM SCT013 BKN027 19/15 A3017 RMK AO2 T01940150
KBMQ 251417Z AUTO 36009G17KT 10SM BKN014 BKN035 19/16 A3016 RMK AO2 T01940156
KBMQ 251353Z AUTO 32005KT 8SM SCT021 BKN035 20/18 A3014 RMK AO2 RAE28 SLP193 P0000 T02000178
KBMQ 251322Z AUTO 30005KT 6SM -RA BR FEW010 OVC020 19/18 A3013 RMK AO2 P0000 T01940178
KBMQ 251312Z AUTO 32004KT 2SM -RA BR SCT010 BKN016 OVC022 19/18 A3013 RMK AO2 P0000 T01890178
KBMQ 251303Z AUTO 35006KT 1 3/4SM -RA BR BKN010 OVC014 19/18 A3013 RMK AO2 CIG 007V013 P0000 T01890178
KBMQ 251253Z AUTO 36005KT 4SM -RA BR OVC011 19/18 A3013 RMK AO2 RAB45 CIG 007V013 SLP188 P0000 T01890178
KBMQ 251153Z AUTO 27003KT 9SM OVC014 19/18 A3008 RMK AO2 SLP172 T01940178 10200 20183 53006
KBMQ 251101Z AUTO 24005KT 9SM OVC011 20/18 A3007 RMK AO2 T02000178
KBMQ 251053Z AUTO 24009KT 9SM BKN009 OVC013 19/18 A3007 RMK AO2 SLP168 T01940178
KBMQ 251044Z AUTO 25005KT 9SM OVC009 19/18 A3007 RMK AO2 CIG 008V013 T01940178
KBMQ 250953Z AUTO 22004KT 8SM OVC012 19/18 A3006 RMK AO2 SLP164 T01890178
KBMQ 250853Z AUTO 20005KT 8SM OVC012 19/18 A3006 RMK AO2 SLP165 T01940178 56004
KBMQ 250826Z AUTO 19007KT 8SM OVC010 19/18 A3006 RMK AO2 T01940178
KBMQ 250800Z AUTO 18006KT 8SM OVC009 19/18 A3006 RMK AO2 T01940178
KBMQ 250753Z AUTO 18007KT 8SM OVC010 19/18 A3006 RMK AO2 SLP167 T01890178
KBMQ 250711Z AUTO 19005KT 8SM BKN010 18/17 A3007 RMK AO2 T01830172
KBMQ 250653Z AUTO 18004KT 9SM CLR 19/17 A3007 RMK AO2 SLP169 T01890172
KBMQ 250553Z AUTO 19007KT 10SM CLR 19/17 A3007 RMK AO2 SLP171 T01940167 10261 20189 402670183 51007
KBMQ 250453Z AUTO 20006KT 10SM CLR 20/16 A3007 RMK AO2 SLP169 T02000161
KBMQ 250353Z AUTO 18005KT 10SM CLR 19/15 A3007 RMK AO2 SLP169 T01940150
KBMQ 250253Z AUTO 20003KT 10SM CLR 19/14 A3005 RMK AO2 SLP164 T01940144 53019
KBMQ 250153Z AUTO 00000KT 10SM CLR 22/15 A3002 RMK AO2 SLP153 T02220150
KBMQ 250053Z AUTO 17004KT 10SM CLR 24/16 A3001 RMK AO2 SLP148 T02440156
KBMQ 242353Z AUTO 18006KT 10SM CLR 26/15 A3000 RMK AO2 SLP142 T02610150 10267 20217 56012
KBMQ 242253Z AUTO 21007KT 10SM CLR 26/16 A3000 RMK AO2 SLP145 T02610156
KBMQ 242153Z AUTO 21007G15KT 170V230 10SM CLR 26/16 A3002 RMK AO2 SLP152 T02610156
KBMQ 242053Z AUTO 19012G16KT 10SM CLR 26/16 A3003 RMK AO2 SLP155 T02610161 56026
KBMQ 241953Z AUTO 20006KT 10SM FEW029 24/17 A3006 RMK AO2 SLP164 T02440167
KBMQ 241908Z AUTO 20010G15KT 10SM SCT024 24/16 A3008 RMK AO2 T02390161
KBMQ 241853Z AUTO 20008KT 10SM BKN025 23/16 A3009 RMK AO2 SLP174 T02330161
KBMQ 241753Z AUTO 21010KT 10SM BKN020 OVC025 22/17 A3011 RMK AO2 SLP184 T02170167 10217 20183 58002
KBMQ 241653Z AUTO 19009KT 10SM OVC020 21/16 A3012 RMK AO2 SLP187 T02110161
KBMQ 241553Z AUTO 20007KT 10SM OVC020 21/16 A3012 RMK AO2 SLP186 T02060161
KBMQ 241453Z AUTO 19011KT 10SM FEW013 OVC022 20/16 A3012 RMK AO2 SLP187 T02000161 51014
KBMQ 241353Z AUTO 20005KT 10SM OVC016 19/16 A3011 RMK AO2 SLP184 T01890161
KBMQ 241336Z AUTO 19006KT 10SM FEW013 OVC018 18/17 A3010 RMK AO2 T01830167
KBMQ 241253Z AUTO 19006KT 10SM BKN013 BKN021 OVC026 18/16 A3009 RMK AO2 SLP178 T01830161
KBMQ 241244Z AUTO 19004KT 10SM BKN013 OVC021 18/16 A3009 RMK AO2 T01830161
KBMQ 241153Z AUTO 18007KT 10SM OVC015 18/16 A3007 RMK AO2 SLP171 T01830161 10189 20183 53003
KBMQ 241053Z AUTO 18008KT 10SM OVC017 18/16 A3006 RMK AO2 SLP167 T01830161
KBMQ 240953Z AUTO 18009KT 10SM OVC020 18/16 A3006 RMK AO2 SLP166 T01830161
KBMQ 240853Z AUTO 17007KT 10SM FEW014 OVC024 18/16 A3006 RMK AO2 SLP168 T01830156 58003
KBMQ 240753Z AUTO 18006KT 10SM OVC016 18/16 A3008 RMK AO2 SLP172 T01830156
KBMQ 240653Z AUTO 18007KT 10SM OVC016 18/16 A3008 RMK AO2 SLP173 T01830156